Time;durP1;ratioP1;P1;durP2;ratioP2;P2;SDS_P1;SDS_P2;PMS_P1;PMS_P2;Temp;Humidity;BMP_temperature;BMP_pressure;BME280_temperature;BME280_humidity;BME280_pressure;Samples;Min_cycle;Max_cycle;Signal;HPM_P1;HPM_P2
2022/06/05 00:01:39;;;;;;;7.00;6.40;;;;;;;19.39;93.45;96757.28;5073739;28;20189;-61
2022/06/05 00:04:37;;;;;;;6.63;5.85;;;;;;;19.55;92.45;96765.94;5047505;28;20619;-61
2022/06/05 00:07:29;;;;;;;6.60;5.75;;;;;;;19.66;91.78;96759.44;5066368;28;20279;-62
2022/06/05 00:10:07;;;;;;;7.15;6.55;;;;;;;19.47;92.77;96754.06;5061269;28;20186;-62
2022/06/05 00:13:09;;;;;;;6.75;6.10;;;;;;;19.50;92.63;96747.41;5073694;28;20173;-61
2022/06/05 00:15:34;;;;;;;7.00;6.40;;;;;;;19.43;92.97;96741.59;5058017;28;20181;-65
2022/06/05 00:18:00;;;;;;;7.13;6.18;;;;;;;19.41;93.20;96735.75;5073131;28;20195;-62
2022/06/05 00:20:26;;;;;;;7.20;6.57;;;;;;;19.50;92.81;96737.53;5073117;28;20693;-61
2022/06/05 00:22:51;;;;;;;7.18;6.45;;;;;;;19.39;93.33;96732.59;5055127;28;20204;-62
2022/06/05 00:25:16;;;;;;;7.57;6.25;;;;;;;19.36;93.98;96738.47;5073038;28;20699;-62
2022/06/05 00:28:02;;;;;;;7.38;6.78;;;;;;;19.42;93.43;96729.38;5071350;28;21857;-61
2022/06/05 00:30:47;;;;;;;7.03;6.43;;;;;;;19.39;93.56;96729.94;5021531;28;20212;-61
2022/06/05 00:33:34;;;;;;;7.25;6.63;;;;;;;19.40;93.61;96726.19;5073284;28;20672;-62
2022/06/05 00:36:29;;;;;;;8.02;6.45;;;;;;;19.39;93.66;96730.72;5073192;28;20193;-61
2022/06/05 00:39:21;;;;;;;8.80;6.82;;;;;;;19.23;94.57;96725.84;5072989;28;20194;-62
2022/06/05 00:42:00;;;;;;;7.18;6.50;;;;;;;19.20;94.94;96708.63;5057402;28;20532;-62
2022/06/05 00:44:36;;;;;;;6.88;6.28;;;;;;;19.22;94.89;96722.44;5073063;28;20231;-61
2022/06/05 00:47:02;;;;;;;7.22;6.53;;;;;;;19.36;94.04;96725.19;5072690;28;20223;-61
2022/06/05 00:49:34;;;;;;;7.30;6.70;;;;;;;19.27;94.48;96717.06;5061193;28;20208;-61
2022/06/05 00:52:00;;;;;;;7.35;6.65;;;;;;;19.22;94.94;96711.81;5072903;28;20189;-61
2022/06/05 00:54:26;;;;;;;7.45;6.38;;;;;;;19.02;96.39;96709.34;5072536;28;20196;-61
2022/06/05 00:56:51;;;;;;;7.50;6.85;;;;;;;19.04;96.49;96708.00;5072968;28;20189;-62
2022/06/05 00:59:20;;;;;;;7.57;6.32;;;;;;;19.01;96.59;96705.91;5072879;28;20181;-61
2022/06/05 01:01:46;;;;;;;7.32;6.63;;;;;;;19.16;95.76;96702.31;5072528;28;20212;-61
2022/06/05 01:04:13;;;;;;;7.82;6.43;;;;;;;19.04;96.27;96700.03;5072476;28;20360;-62
2022/06/05 01:06:38;;;;;;;6.95;6.35;;;;;;;18.97;97.10;96704.88;5073019;28;20877;-61
2022/06/05 01:09:05;;;;;;;7.50;6.80;;;;;;;18.94;97.21;96705.47;5072313;28;20193;-62
2022/06/05 01:11:57;;;;;;;8.63;6.28;;;;;;;18.98;97.27;96716.31;5072309;28;20568;-61
2022/06/05 01:14:54;;;;;;;7.72;6.80;;;;;;;19.03;96.60;96714.38;5072570;28;20630;-61
2022/06/05 01:17:45;;;;;;;7.57;6.88;;;;;;;19.01;96.78;96721.03;5072380;28;20655;-61
2022/06/05 01:20:16;;;;;;;9.02;6.82;;;;;;;19.07;96.42;96730.53;5072570;28;20199;-62
2022/06/05 01:23:10;;;;;;;7.57;6.88;;;;;;;19.07;96.68;96736.66;5072537;28;20209;-61
2022/06/05 01:26:05;;;;;;;7.57;6.90;;;;;;;19.16;96.06;96744.81;5071994;28;20182;-62
2022/06/05 01:28:34;;;;;;;8.38;7.20;;;;;;;19.05;96.58;96735.38;5070800;28;20193;-62
2022/06/05 01:31:02;;;;;;;7.15;6.55;;;;;;;18.94;97.52;96728.56;5072225;28;20177;-61
2022/06/05 01:33:29;;;;;;;7.43;6.72;;;;;;;18.93;97.78;96725.13;5072164;28;20597;-62
2022/06/05 01:36:08;;;;;;;7.68;6.85;;;;;;;18.99;97.57;96731.19;5054231;28;20268;-63
2022/06/05 01:39:01;;;;;;;7.72;7.05;;;;;;;19.12;96.50;96727.84;5072451;28;20233;-61
2022/06/05 01:41:46;;;;;;;7.38;6.78;;;;;;;19.37;94.63;96732.09;5070939;28;20590;-62
2022/06/05 01:44:19;;;;;;;7.22;6.63;;;;;;;19.29;94.98;96746.78;5072061;28;20201;-62
2022/06/05 01:46:44;;;;;;;7.47;6.47;;;;;;;19.33;94.60;96752.34;5071883;28;20174;-61
2022/06/05 01:49:40;;;;;;;6.85;6.28;;;;;;;19.21;95.53;96741.31;5071186;28;20280;-61
2022/06/05 01:52:13;;;;;;;6.97;6.38;;;;;;;19.18;95.51;96736.53;5023282;28;20252;-62
2022/06/05 01:54:59;;;;;;;8.00;7.30;;;;;;;19.23;95.10;96712.56;5070364;28;20173;-62
2022/06/05 01:57:26;;;;;;;6.95;6.32;;;;;;;19.05;96.42;96714.13;5072181;28;20177;-61
2022/06/05 01:59:57;;;;;;;7.55;6.88;;;;;;;18.84;97.73;96715.38;5071914;28;20192;-61
2022/06/05 02:02:28;;;;;;;7.70;6.45;;;;;;;18.68;98.59;96709.41;5072098;28;20177;-61
2022/06/05 02:05:14;;;;;;;8.25;7.15;;;;;;;18.52;99.08;96698.13;5071968;28;20177;-61
2022/06/05 02:07:45;;;;;;;7.97;7.18;;;;;;;18.47;99.91;96692.84;5072221;28;20215;-61
2022/06/05 02:10:26;;;;;;;7.63;6.75;;;;;;;18.59;99.06;96690.66;5072098;28;20226;-61
2022/06/05 02:12:53;;;;;;;7.55;6.93;;;;;;;18.58;98.86;96694.38;5071815;28;20239;-61
2022/06/05 02:15:20;;;;;;;7.50;6.88;;;;;;;18.32;100.00;96692.97;5053962;28;20190;-61
2022/06/05 02:17:46;;;;;;;8.60;7.20;;;;;;;18.34;100.00;96688.16;5071708;28;20211;-61
2022/06/05 02:20:12;;;;;;;8.05;7.35;;;;;;;18.48;100.00;96685.69;5071471;28;20190;-61
2022/06/05 02:22:45;;;;;;;8.02;7.22;;;;;;;18.29;100.00;96682.91;5071849;28;20229;-61
2022/06/05 02:25:11;;;;;;;7.97;7.22;;;;;;;18.10;100.00;96658.94;5071637;28;20220;-61
2022/06/05 02:27:37;;;;;;;8.60;7.78;;;;;;;18.13;100.00;96637.16;5068300;28;20200;-61
2022/06/05 02:30:05;;;;;;;8.87;8.07;;;;;;;18.09;100.00;96622.84;5071096;28;20189;-61
2022/06/05 02:32:54;;;;;;;8.80;8.00;;;;;;;18.11;100.00;96606.69;5053169;28;20185;-62
2022/06/05 02:35:30;;;;;;;9.27;8.30;;;;;;;18.03;100.00;96584.19;5071235;28;20626;-62
2022/06/05 02:38:18;;;;;;;9.97;9.07;;;;;;;17.89;100.00;96553.28;5070611;28;20233;-61
2022/06/05 02:41:12;;;;;;;11.73;8.80;;;;;;;17.68;100.00;96540.19;5043491;28;20233;-61
2022/06/05 02:46:52;;;;;;;10.07;9.00;;;;;;;17.60;100.00;96542.66;5070909;28;20188;-61
2022/06/05 02:49:26;;;;;;;10.00;8.93;;;;;;;17.77;100.00;96566.91;5071313;28;20223;-62
2022/06/05 02:51:56;;;;;;;10.27;9.27;;;;;;;17.81;100.00;96584.63;5071475;28;20260;-60
2022/06/05 02:54:25;;;;;;;9.97;8.97;;;;;;;17.89;100.00;96591.19;5074335;28;20595;-61
2022/06/05 02:56:50;;;;;;;9.83;8.87;;;;;;;17.93;100.00;96580.81;5074437;28;20288;-61
2022/06/05 02:59:17;;;;;;;10.40;9.27;;;;;;;17.86;100.00;96583.78;5074970;28;20213;-61
2022/06/05 03:04:26;;;;;;;12.53;8.83;;;;;;;18.04;100.00;96583.13;5074548;28;20219;-61
2022/06/05 03:06:52;;;;;;;9.70;8.65;;;;;;;18.17;100.00;96586.97;5074491;28;20532;-61
2022/06/05 03:09:18;;;;;;;10.70;9.55;;;;;;;18.25;100.00;96586.38;5074524;28;20695;-61
2022/06/05 03:11:44;;;;;;;9.75;8.52;;;;;;;18.31;100.00;96582.59;5074557;28;20185;-61
2022/06/05 03:14:09;;;;;;;8.95;8.15;;;;;;;18.29;100.00;96579.44;5073387;28;20254;-61
2022/06/05 03:16:35;;;;;;;10.07;8.70;;;;;;;18.37;100.00;96570.88;5074416;28;20185;-61
2022/06/05 03:19:00;;;;;;;9.75;8.82;;;;;;;18.36;100.00;96571.13;5074088;28;20272;-61
2022/06/05 03:21:29;;;;;;;9.20;8.32;;;;;;;18.34;100.00;96552.84;5074459;28;20221;-61
2022/06/05 03:23:54;;;;;;;9.32;8.43;;;;;;;18.34;100.00;96544.88;5073768;28;20212;-62
2022/06/05 03:26:23;;;;;;;9.30;8.43;;;;;;;18.45;100.00;96540.25;5071782;28;20197;-61
2022/06/05 03:28:48;;;;;;;9.00;8.20;;;;;;;18.39;100.00;96536.84;5074338;28;20638;-62
2022/06/05 03:31:14;;;;;;;8.93;8.23;;;;;;;18.32;100.00;96525.81;5074712;28;20180;-62
2022/06/05 03:33:39;;;;;;;8.80;7.82;;;;;;;18.52;99.58;96532.75;5074550;28;20735;-62
2022/06/05 03:36:13;;;;;;;8.63;7.82;;;;;;;18.31;100.00;96534.03;5056172;28;20219;-62
2022/06/05 03:38:39;;;;;;;8.68;7.97;;;;;;;18.56;99.38;96528.47;5073772;28;20228;-62
2022/06/05 03:41:05;;;;;;;11.30;8.13;;;;;;;18.53;98.78;96524.50;5059405;28;20191;-62
2022/06/05 03:43:31;;;;;;;8.70;7.90;;;;;;;18.53;98.81;96532.47;5074234;28;20280;-62
2022/06/05 03:46:00;;;;;;;8.88;8.07;;;;;;;18.49;98.72;96550.03;5074435;28;20624;-62
2022/06/05 03:48:26;;;;;;;8.30;7.60;;;;;;;18.60;98.07;96562.16;5074420;28;20196;-63
2022/06/05 03:50:51;;;;;;;8.32;7.63;;;;;;;18.78;96.78;96571.22;5057934;28;20181;-62
2022/06/05 03:53:17;;;;;;;9.65;7.70;;;;;;;18.65;97.16;96571.91;5074340;28;20186;-61
2022/06/05 03:55:43;;;;;;;8.00;7.22;;;;;;;18.66;95.36;96586.78;5074241;28;20181;-62
2022/06/05 03:58:08;;;;;;;7.57;6.88;;;;;;;18.74;95.34;96599.41;5056107;28;20544;-62
2022/06/05 04:00:34;;;;;;;8.10;7.35;;;;;;;18.77;95.72;96621.97;5073150;28;20208;-61
2022/06/05 04:03:00;;;;;;;7.45;6.75;;;;;;;18.67;97.46;96636.94;5073443;28;20247;-62
2022/06/05 04:05:25;;;;;;;7.72;7.13;;;;;;;18.76;97.64;96631.00;5074206;28;20208;-62
2022/06/05 04:07:51;;;;;;;7.68;7.00;;;;;;;18.57;100.00;96630.94;5073381;28;20191;-62
2022/06/05 04:10:18;;;;;;;7.78;7.07;;;;;;;18.32;100.00;96644.44;5073405;28;20182;-63
2022/06/05 04:12:44;;;;;;;9.50;8.13;;;;;;;18.37;100.00;96641.72;5073695;28;20264;-62
2022/06/05 04:15:11;;;;;;;8.65;7.78;;;;;;;18.23;100.00;96629.09;5073708;28;20276;-61
2022/06/05 04:17:37;;;;;;;9.32;8.45;;;;;;;18.11;100.00;96610.09;5073841;28;20188;-62
2022/06/05 04:20:03;;;;;;;9.25;8.40;;;;;;;18.00;100.00;96597.97;5072964;28;20181;-62
2022/06/05 04:22:29;;;;;;;9.98;8.85;;;;;;;17.90;100.00;96595.41;5073275;28;20188;-61
2022/06/05 04:24:54;;;;;;;9.52;8.75;;;;;;;17.89;100.00;96585.09;5073276;28;20177;-64
2022/06/05 04:27:20;;;;;;;9.80;8.87;;;;;;;17.82;100.00;96582.78;5071234;28;20186;-62
2022/06/05 04:29:45;;;;;;;10.63;9.63;;;;;;;17.88;100.00;96580.88;5073346;28;20226;-62
2022/06/05 04:32:10;;;;;;;10.13;9.23;;;;;;;17.79;100.00;96592.06;5073228;28;20704;-61
2022/06/05 04:34:37;;;;;;;12.32;11.02;;;;;;;17.72;100.00;96593.47;5073210;28;20185;-61
2022/06/05 04:37:02;;;;;;;11.67;10.60;;;;;;;17.45;100.00;96599.16;5054742;28;20582;-62
2022/06/05 04:39:28;;;;;;;12.83;11.63;;;;;;;17.35;100.00;96610.59;5073285;28;20181;-62
2022/06/05 04:41:53;;;;;;;14.27;11.63;;;;;;;17.22;100.00;96613.06;5073265;28;20191;-63
2022/06/05 04:44:19;;;;;;;14.10;12.37;;;;;;;17.25;100.00;96605.38;5073402;28;20215;-61
2022/06/05 04:46:45;;;;;;;13.13;12.03;;;;;;;17.25;100.00;96615.97;5072509;28;20185;-61
2022/06/05 04:49:12;;;;;;;12.30;11.10;;;;;;;17.29;100.00;96611.69;5073254;28;20675;-62
2022/06/05 04:51:37;;;;;;;12.27;11.07;;;;;;;17.24;100.00;96617.03;5072807;28;20947;-61
2022/06/05 04:54:05;;;;;;;14.50;13.20;;;;;;;17.24;100.00;96616.22;5073150;28;20189;-62
2022/06/05 04:56:32;;;;;;;15.77;14.27;;;;;;;17.16;100.00;96624.75;5073161;28;20193;-62
2022/06/05 04:58:58;;;;;;;12.43;11.23;;;;;;;17.02;100.00;96643.88;5073255;28;20268;-61
2022/06/05 05:01:29;;;;;;;13.83;12.63;;;;;;;17.13;100.00;96647.28;5072899;28;20268;-62
2022/06/05 05:04:08;;;;;;;16.67;14.97;;;;;;;17.16;100.00;96662.63;5072816;28;20252;-61
2022/06/05 05:06:34;;;;;;;17.13;15.47;;;;;;;17.33;100.00;96668.38;5072707;28;20191;-61
2022/06/05 05:09:00;;;;;;;17.23;15.53;;;;;;;17.27;100.00;96671.34;5073037;28;20653;-61
2022/06/05 05:11:26;;;;;;;17.37;15.57;;;;;;;17.16;100.00;96675.88;5073034;28;20188;-61
2022/06/05 05:13:56;;;;;;;16.87;15.27;;;;;;;17.11;100.00;96673.22;5072545;28;20189;-61
2022/06/05 05:16:22;;;;;;;14.83;13.23;;;;;;;17.23;100.00;96688.81;5072228;28;20181;-61
2022/06/05 05:18:48;;;;;;;16.37;14.70;;;;;;;17.34;100.00;96706.25;5073005;28;20552;-62
2022/06/05 05:21:19;;;;;;;17.07;14.40;;;;;;;17.24;100.00;96715.03;5072821;28;20247;-62
2022/06/05 05:23:45;;;;;;;17.07;15.23;;;;;;;17.18;100.00;96728.56;5072495;28;20649;-62
2022/06/05 05:26:23;;;;;;;19.70;15.90;;;;;;;17.16;100.00;96728.84;5068713;28;20657;-62
2022/06/05 05:28:49;;;;;;;18.63;16.73;;;;;;;17.19;100.00;96733.59;5072907;28;20168;-63
2022/06/05 05:31:20;;;;;;;19.23;17.10;;;;;;;16.99;100.00;96737.09;5072839;28;20260;-62
2022/06/05 05:33:49;;;;;;;20.00;17.93;;;;;;;16.87;100.00;96728.66;5071946;28;20174;-63
2022/06/05 05:36:19;;;;;;;19.30;17.27;;;;;;;16.84;100.00;96718.56;5071917;28;20626;-62
2022/06/05 05:44:15;;;;;;;21.57;18.87;;;;;;;17.05;100.00;96729.94;5071856;28;20258;-63
2022/06/05 05:46:42;;;;;;;20.97;17.97;;;;;;;17.07;100.00;96743.69;5072534;28;20183;-62
2022/06/05 05:49:08;;;;;;;21.83;18.97;;;;;;;17.15;100.00;96739.72;5072628;28;20215;-62
2022/06/05 05:51:33;;;;;;;26.67;20.03;;;;;;;17.21;100.00;96739.44;5072493;28;20189;-62
2022/06/05 05:53:59;;;;;;;24.60;20.03;;;;;;;17.26;100.00;96773.84;5072073;28;20196;-62
2022/06/05 05:56:24;;;;;;;23.57;20.10;;;;;;;17.12;100.00;96782.59;5072629;28;20188;-62
2022/06/05 05:58:50;;;;;;;21.60;19.25;;;;;;;17.16;100.00;96812.81;5072492;28;20220;-62
2022/06/05 06:01:15;;;;;;;23.27;20.67;;;;;;;17.23;100.00;96821.25;5072339;28;20188;-62
2022/06/05 06:03:40;;;;;;;24.43;21.50;;;;;;;17.29;100.00;96836.09;5072077;28;20234;-62
2022/06/05 06:06:06;;;;;;;26.80;20.80;;;;;;;17.18;100.00;96831.88;5072348;28;20181;-62
2022/06/05 06:08:32;;;;;;;26.03;18.80;;;;;;;17.13;100.00;96824.72;5071919;28;20189;-63
2022/06/05 06:10:57;;;;;;;21.97;18.03;;;;;;;17.04;100.00;96799.84;5072664;28;20188;-62
2022/06/05 06:13:22;;;;;;;20.10;17.93;;;;;;;16.96;100.00;96756.16;5072015;28;20291;-63
2022/06/05 06:15:49;;;;;;;23.73;18.90;;;;;;;16.74;100.00;96733.69;5072316;28;20177;-63
2022/06/05 06:18:15;;;;;;;22.33;18.43;;;;;;;16.61;100.00;96743.75;5071538;28;20184;-62
2022/06/05 06:20:40;;;;;;;17.97;16.10;;;;;;;16.41;100.00;96733.16;5072375;28;20515;-62
2022/06/05 06:23:06;;;;;;;17.80;15.80;;;;;;;16.43;100.00;96722.31;5071972;28;20236;-65
2022/06/05 06:25:31;;;;;;;16.67;14.37;;;;;;;16.38;100.00;96701.94;5069076;28;20192;-64
2022/06/05 06:27:56;;;;;;;16.40;14.80;;;;;;;16.19;100.00;96693.72;5074563;28;20181;-65
2022/06/05 06:30:22;;;;;;;18.43;14.63;;;;;;;16.14;100.00;96661.19;5075462;28;20181;-64
2022/06/05 06:32:47;;;;;;;20.40;16.43;;;;;;;15.90;100.00;96629.19;5058280;28;20173;-64
2022/06/05 06:35:13;;;;;;;19.77;17.50;;;;;;;15.76;100.00;96622.84;5075941;28;20245;-64
2022/06/05 06:37:38;;;;;;;25.43;17.60;;;;;;;15.78;100.00;96591.66;5074981;28;20303;-64
2022/06/05 06:40:04;;;;;;;17.83;16.03;;;;;;;15.72;100.00;96551.22;5075854;28;20608;-62
2022/06/05 06:42:29;;;;;;;22.13;16.20;;;;;;;15.74;100.00;96551.75;5075753;28;20575;-62
2022/06/05 06:44:56;;;;;;;14.90;13.30;;;;;;;15.77;100.00;96548.56;5075488;28;20187;-65
2022/06/05 06:47:22;;;;;;;15.20;13.60;;;;;;;15.78;100.00;96530.88;5075879;28;20260;-66
2022/06/05 06:49:47;;;;;;;16.03;14.40;;;;;;;16.03;100.00;96519.50;5075577;28;20196;-65
2022/06/05 06:52:13;;;;;;;15.07;13.40;;;;;;;15.92;100.00;96492.28;5075413;28;20189;-65
2022/06/05 06:54:39;;;;;;;16.67;12.37;;;;;;;16.01;100.00;96490.66;5075883;28;20188;-64
2022/06/05 06:57:04;;;;;;;12.87;10.13;;;;;;;16.13;100.00;96503.59;5075706;28;20536;-64
2022/06/05 06:59:30;;;;;;;11.40;10.17;;;;;;;16.27;100.00;96502.00;5075466;28;20177;-64
2022/06/05 07:01:55;;;;;;;11.37;9.73;;;;;;;16.31;100.00;96499.59;5075653;28;20213;-65
2022/06/05 07:04:21;;;;;;;9.20;8.30;;;;;;;16.31;100.00;96495.09;5075296;28;20240;-64
2022/06/05 07:06:47;;;;;;;10.70;8.17;;;;;;;16.34;100.00;96486.59;5075931;28;20205;-64
2022/06/05 07:09:14;;;;;;;12.07;8.43;;;;;;;16.30;100.00;96495.34;5075913;28;20185;-64
2022/06/05 07:11:40;;;;;;;8.17;7.37;;;;;;;16.30;100.00;96485.56;5075526;28;20259;-66
2022/06/05 07:14:06;;;;;;;8.87;7.97;;;;;;;16.32;100.00;96453.56;5075544;28;20185;-64
2022/06/05 07:16:31;;;;;;;8.43;7.30;;;;;;;16.40;100.00;96447.69;5075602;28;20591;-65
2022/06/05 07:18:56;;;;;;;7.40;6.60;;;;;;;16.37;100.00;96441.13;5075661;28;20280;-66
2022/06/05 07:21:24;;;;;;;21.30;12.93;;;;;;;16.20;100.00;96297.84;5074714;28;20208;-65
2022/06/05 07:23:50;;;;;;;5.40;4.90;;;;;;;16.32;100.00;96376.88;5073052;28;20193;-64
2022/06/05 07:26:19;;;;;;;4.83;4.40;;;;;;;16.55;100.00;96368.28;5070260;28;20270;-64
2022/06/05 07:28:45;;;;;;;5.47;3.83;;;;;;;16.72;100.00;96476.44;5075962;28;20585;-64
2022/06/05 07:31:13;;;;;;;9.60;3.73;;;;;;;16.78;100.00;96488.56;5075066;28;20181;-65
2022/06/05 07:33:39;;;;;;;4.10;3.70;;;;;;;16.85;100.00;96478.47;5076135;28;20193;-65
2022/06/05 07:36:07;;;;;;;6.50;4.30;;;;;;;16.91;100.00;96485.31;5074930;28;20272;-66
2022/06/05 07:38:34;;;;;;;5.13;3.90;;;;;;;16.89;100.00;96480.28;5074562;28;20300;-65
2022/06/05 07:41:00;;;;;;;5.17;4.03;;;;;;;16.89;100.00;96487.44;5075255;28;20193;-65
2022/06/05 07:43:26;;;;;;;4.63;3.90;;;;;;;16.86;100.00;96483.50;5074183;28;20216;-65
2022/06/05 07:45:51;;;;;;;4.47;4.13;;;;;;;16.86;100.00;96485.34;5074771;28;20189;-65
2022/06/05 07:48:19;;;;;;;4.53;3.97;;;;;;;17.08;100.00;96503.50;5074866;28;20668;-65
2022/06/05 07:56:14;;;;;;;5.37;3.70;;;;;;;17.18;100.00;96514.81;5074588;28;20220;-65
2022/06/05 07:58:39;;;;;;;5.17;3.50;;;;;;;17.24;100.00;96532.25;5074350;28;20197;-65
2022/06/05 08:01:07;;;;;;;6.00;3.60;;;;;;;17.29;100.00;96545.47;5074311;28;20560;-65
2022/06/05 08:03:33;;;;;;;5.50;3.40;;;;;;;17.30;100.00;96538.31;5074190;28;20228;-65
2022/06/05 08:05:59;;;;;;;5.77;4.10;;;;;;;17.95;100.00;96541.53;5074339;28;20642;-69
2022/06/05 08:08:24;;;;;;;5.50;3.80;;;;;;;18.70;100.00;96534.69;5074949;28;20205;-69
2022/06/05 08:10:50;;;;;;;3.73;3.00;;;;;;;19.08;100.00;96531.00;5073825;28;20173;-68
2022/06/05 08:13:15;;;;;;;3.77;2.27;;;;;;;19.45;100.00;96530.22;5074387;28;20294;-66
2022/06/05 08:15:44;;;;;;;2.40;2.20;;;;;;;19.66;100.00;96538.69;5074034;28;20188;-68
2022/06/05 08:18:09;;;;;;;6.10;2.30;;;;;;;19.27;100.00;96536.34;5073903;28;20268;-63
2022/06/05 08:20:35;;;;;;;3.15;2.35;;;;;;;18.75;100.00;96517.91;5074110;28;20260;-63
2022/06/05 08:23:00;;;;;;;3.63;2.28;;;;;;;18.48;100.00;96513.94;5073604;28;20201;-65
2022/06/05 08:25:25;;;;;;;2.67;2.42;;;;;;;18.66;100.00;96529.16;5071370;28;20405;-64
2022/06/05 08:27:51;;;;;;;3.58;2.05;;;;;;;18.66;100.00;96537.13;5073125;28;20665;-64
2022/06/05 08:30:16;;;;;;;2.38;2.17;;;;;;;18.78;100.00;96536.69;5074146;28;20185;-63
2022/06/05 08:32:42;;;;;;;1.80;1.70;;;;;;;18.72;100.00;96532.56;5074066;28;20235;-63
2022/06/05 08:35:07;;;;;;;3.55;2.00;;;;;;;18.66;100.00;96539.00;5072213;28;20262;-64
2022/06/05 08:43:38;;;;;;;2.00;1.80;;;;;;;19.04;100.00;96542.50;5071786;28;20212;-66
2022/06/05 08:46:10;;;;;;;1.40;1.30;;;;;;;19.21;100.00;96536.69;5072869;28;20245;-66
2022/06/05 08:48:44;;;;;;;1.70;1.50;;;;;;;19.59;100.00;96529.50;5071849;28;20225;-66
2022/06/05 08:51:21;;;;;;;1.77;1.55;;;;;;;19.85;100.00;96533.31;5071592;28;20185;-68
2022/06/05 08:53:55;;;;;;;2.00;1.88;;;;;;;20.33;100.00;96526.66;5074559;28;20192;-66
2022/06/05 08:56:36;;;;;;;3.70;1.73;;;;;;;20.43;100.00;96541.66;5073366;28;20258;-68
2022/06/05 08:59:15;;;;;;;1.55;1.30;;;;;;;20.61;100.00;96539.97;5073228;28;20717;-68
2022/06/05 09:01:51;;;;;;;1.40;1.30;;;;;;;20.46;100.00;96540.25;5073870;28;20185;-69
2022/06/05 09:04:26;;;;;;;3.25;1.58;;;;;;;20.77;100.00;96543.13;5073032;28;20200;-70
2022/06/05 09:07:00;;;;;;;2.85;1.73;;;;;;;20.80;99.40;96545.97;5072881;28;20189;-69
2022/06/05 09:09:34;;;;;;;4.38;1.85;;;;;;;20.85;97.48;96542.41;5073359;28;20296;-69
2022/06/05 09:12:10;;;;;;;5.68;2.03;;;;;;;20.78;97.32;96544.72;5073299;28;20176;-68
2022/06/05 09:14:42;;;;;;;2.75;1.55;;;;;;;20.95;95.04;96537.69;5073306;28;20181;-68
2022/06/05 09:17:26;;;;;;;4.80;1.80;;;;;;;21.07;93.94;96532.59;5072811;28;20216;-68
2022/06/05 09:19:52;;;;;;;3.85;1.70;;;;;;;21.19;92.75;96531.34;5070033;28;20181;-69
2022/06/05 09:22:40;;;;;;;5.65;1.42;;;;;;;21.04;92.24;96519.09;5072759;28;20196;-67
2022/06/05 09:25:13;;;;;;;2.60;1.25;;;;;;;20.93;92.07;96523.88;5065405;28;20184;-69
2022/06/05 09:27:38;;;;;;;2.28;1.10;;;;;;;21.20;90.72;96540.91;5072126;28;20174;-68
2022/06/05 09:30:12;;;;;;;1.85;1.10;;;;;;;21.26;91.50;96537.06;5072618;28;20644;-68
2022/06/05 09:32:56;;;;;;;2.85;1.10;;;;;;;21.48;89.74;96540.53;5072847;28;20189;-68
2022/06/05 09:35:40;;;;;;;1.77;1.17;;;;;;;21.27;89.66;96551.97;5069514;28;20260;-68
2022/06/05 09:38:43;;;;;;;1.55;1.23;;;;;;;21.70;90.67;96558.44;5071652;28;20260;-69
2022/06/05 09:41:11;;;;;;;1.92;1.20;;;;;;;22.01;88.57;96547.06;5072333;28;20186;-68
2022/06/05 09:43:57;;;;;;;1.10;1.00;;;;;;;22.01;89.79;96542.50;5072100;28;20197;-69
2022/06/05 09:46:40;;;;;;;1.08;1.08;;;;;;;21.70;91.38;96538.97;5072481;28;20539;-67
2022/06/05 09:49:18;;;;;;;3.60;1.20;;;;;;;21.40;92.60;96545.81;5054358;28;20540;-66
2022/06/05 09:51:45;;;;;;;1.10;1.00;;;;;;;21.34;93.13;96569.13;5072103;28;20185;-69
2022/06/05 09:54:30;;;;;;;4.30;1.52;;;;;;;21.34;89.32;96581.69;5072106;28;20220;-67
2022/06/05 10:00:04;;;;;;;2.97;1.10;;;;;;;22.08;88.83;96569.53;5072302;28;20204;-67
2022/06/05 10:02:31;;;;;;;1.90;1.05;;;;;;;22.20;86.53;96575.13;5075373;28;20176;-68
2022/06/05 10:04:57;;;;;;;1.05;0.90;;;;;;;22.39;86.06;96586.38;5076242;28;20181;-68
2022/06/05 10:07:33;;;;;;;0.90;0.90;;;;;;;22.55;84.57;96588.66;5075921;28;20660;-67
2022/06/05 10:10:05;;;;;;;1.75;1.00;;;;;;;22.98;82.84;96600.31;5075699;28;20181;-68
2022/06/05 10:12:39;;;;;;;2.55;1.10;;;;;;;22.96;81.49;96607.84;5070858;28;20189;-68
2022/06/05 10:15:05;;;;;;;1.05;1.05;;;;;;;22.89;81.29;96604.06;5043217;28;20547;-68
2022/06/05 10:17:30;;;;;;;1.10;1.00;;;;;;;22.80;81.85;96610.16;5075994;28;20193;-68
2022/06/05 10:19:58;;;;;;;2.28;1.30;;;;;;;23.05;81.22;96613.22;5075243;28;20262;-68
2022/06/05 10:22:26;;;;;;;1.20;1.10;;;;;;;23.18;81.62;96605.06;5073871;28;20195;-67
2022/06/05 10:25:18;;;;;;;2.67;1.30;;;;;;;22.93;82.36;96607.69;5051190;28;20224;-67
2022/06/05 10:27:55;;;;;;;2.63;1.25;;;;;;;22.90;83.06;96619.00;5068507;28;20196;-67
2022/06/05 10:30:26;;;;;;;4.68;1.75;;;;;;;23.06;83.61;96625.50;5075109;28;20222;-67
2022/06/05 10:33:01;;;;;;;1.73;1.40;;;;;;;22.77;84.86;96634.03;5075591;28;20265;-67
2022/06/05 10:35:52;;;;;;;1.63;1.30;;;;;;;22.37;89.76;96625.97;5075217;28;20177;-67
2022/06/05 10:38:41;;;;;;;3.15;1.90;;;;;;;22.12;92.42;96620.47;5074657;28;20232;-68
2022/06/05 10:41:24;;;;;;;2.83;1.90;;;;;;;21.91;96.36;96620.91;5075060;28;20185;-67
2022/06/05 10:44:12;;;;;;;3.95;2.00;;;;;;;21.58;100.00;96625.66;5075048;28;20190;-67
2022/06/05 10:46:53;;;;;;;4.63;2.35;;;;;;;21.31;100.00;96615.06;5074715;28;20181;-66
2022/06/05 10:49:29;;;;;;;4.07;2.10;;;;;;;20.89;100.00;96616.16;5057485;28;20212;-67
2022/06/05 10:52:16;;;;;;;2.53;2.20;;;;;;;20.72;100.00;96598.09;5057288;28;20173;-66
2022/06/05 10:55:06;;;;;;;4.53;2.60;;;;;;;20.53;100.00;96604.56;5073394;28;20538;-67
2022/06/05 10:57:40;;;;;;;6.10;3.00;;;;;;;20.45;100.00;96610.59;5056340;28;20216;-67
2022/06/05 11:00:17;;;;;;;3.72;3.15;;;;;;;20.25;100.00;96583.19;5072723;28;20173;-67
2022/06/05 11:03:25;;;;;;;4.15;2.88;;;;;;;20.03;100.00;96592.91;5074681;28;20188;-68
2022/06/05 11:06:07;;;;;;;6.80;3.72;;;;;;;19.86;100.00;96559.66;5073067;28;20527;-65
2022/06/05 11:08:56;;;;;;;6.40;3.95;;;;;;;19.73;100.00;96551.59;5055424;28;20177;-67
2022/06/05 11:14:26;;;;;;;4.00;3.60;;;;;;;19.56;100.00;96538.84;5071360;28;20227;-65
2022/06/05 11:17:16;;;;;;;4.72;3.30;;;;;;;19.58;100.00;96535.91;5072681;28;20173;-65
2022/06/05 11:19:59;;;;;;;5.93;3.42;;;;;;;19.51;100.00;96533.59;5073985;28;20174;-65
2022/06/05 11:22:29;;;;;;;4.10;2.83;;;;;;;19.53;100.00;96536.78;5069454;28;20201;-64
2022/06/05 11:25:25;;;;;;;5.10;3.10;;;;;;;19.59;100.00;96534.81;5071203;28;20189;-64
2022/06/05 11:28:03;;;;;;;6.03;3.22;;;;;;;19.59;100.00;96534.81;5073601;28;20656;-66
2022/06/05 11:30:44;;;;;;;4.22;2.75;;;;;;;19.47;100.00;96541.38;5072226;28;20308;-65
2022/06/05 11:33:23;;;;;;;7.03;2.90;;;;;;;19.54;100.00;96529.59;5074009;28;20173;-67
2022/06/05 11:36:19;;;;;;;3.75;3.00;;;;;;;19.58;100.00;96522.59;5074045;28;20188;-65
2022/06/05 11:39:10;;;;;;;4.22;2.80;;;;;;;19.66;100.00;96552.00;5073701;28;20222;-65
2022/06/05 11:41:57;;;;;;;4.50;2.80;;;;;;;19.97;100.00;96583.41;5072618;28;20243;-65
2022/06/05 11:44:58;;;;;;;3.55;2.67;;;;;;;20.54;100.00;96596.28;5072561;28;20197;-65
2022/06/05 11:47:29;;;;;;;6.70;3.72;;;;;;;20.97;100.00;96593.34;5033128;28;20224;-67
2022/06/05 11:50:04;;;;;;;3.65;2.75;;;;;;;21.58;100.00;96582.19;5073541;28;20185;-67
2022/06/05 11:52:48;;;;;;;7.28;3.15;;;;;;;21.96;100.00;96577.31;5055165;28;20188;-67
2022/06/05 11:55:20;;;;;;;5.63;2.83;;;;;;;22.62;100.00;96592.47;5073746;28;20181;-66
2022/06/05 11:57:58;;;;;;;3.63;2.70;;;;;;;22.23;100.00;96584.41;5078730;28;20276;-67
2022/06/05 12:00:52;;;;;;;3.58;2.33;;;;;;;22.39;100.00;96586.38;5061679;28;20177;-67
2022/06/05 12:03:23;;;;;;;3.70;2.00;;;;;;;22.54;100.00;96581.72;5073278;28;20224;-67
2022/06/05 12:06:05;;;;;;;3.30;2.00;;;;;;;22.67;98.57;96586.19;5073466;28;20188;-67
2022/06/05 12:08:37;;;;;;;3.72;2.38;;;;;;;22.77;99.41;96581.38;5073920;28;20528;-67
2022/06/05 12:11:11;;;;;;;1.95;1.80;;;;;;;22.86;98.37;96581.41;5073208;28;20542;-68
2022/06/05 12:14:07;;;;;;;8.48;2.45;;;;;;;22.97;91.78;96558.63;5072552;28;20641;-67
2022/06/05 12:16:36;;;;;;;3.05;2.05;;;;;;;23.21;92.88;96556.31;5071462;28;20184;-67